createdAt,value
2023-02-12T00:01:28.732Z,99.90
2023-02-12T00:03:58.844Z,99.90
2023-02-12T00:06:27.793Z,99.90
2023-02-12T00:08:59.078Z,99.90
2023-02-12T00:11:29.558Z,99.90
2023-02-12T00:13:58.282Z,99.90
2023-02-12T00:16:29.315Z,99.90
2023-02-12T00:18:59.544Z,99.90
2023-02-12T00:21:28.124Z,99.90
2023-02-12T00:23:56.476Z,99.90
2023-02-12T00:26:24.778Z,99.90
2023-02-12T00:28:53.792Z,99.90
2023-02-12T00:31:24.364Z,99.90
2023-02-12T00:33:52.690Z,99.90
2023-02-12T00:36:24.731Z,99.90
2023-02-12T00:38:54.059Z,99.90
2023-02-12T00:41:23.155Z,99.90
2023-02-12T00:43:51.894Z,99.90
2023-02-12T00:46:20.141Z,99.90
2023-02-12T00:48:51.250Z,99.90
2023-02-12T00:51:23.272Z,99.90
2023-02-12T00:53:51.595Z,99.90
2023-02-12T00:56:19.750Z,99.90
2023-02-12T00:58:50.426Z,99.90
2023-02-12T01:01:18.953Z,99.90
2023-02-12T01:03:47.226Z,99.90
2023-02-12T01:06:15.482Z,99.90
2023-02-12T01:08:45.028Z,99.90
2023-02-12T01:11:14.813Z,99.90
2023-02-12T01:13:43.125Z,99.90
2023-02-12T01:16:16.726Z,99.90
2023-02-12T01:18:45.775Z,99.90
2023-02-12T01:21:17.058Z,99.90
2023-02-12T01:23:47.296Z,99.90
2023-02-12T01:26:17.060Z,99.90
2023-02-12T01:28:47.118Z,99.90
2023-02-12T01:31:17.840Z,99.90
2023-02-12T01:33:49.040Z,99.90
2023-02-12T01:36:17.492Z,99.90
2023-02-12T01:38:47.335Z,99.90
2023-02-12T01:41:17.467Z,99.90
2023-02-12T01:43:47.037Z,99.90
2023-02-12T01:46:16.295Z,99.90
2023-02-12T01:48:47.591Z,99.90
2023-02-12T01:51:20.325Z,99.90
2023-02-12T01:53:54.830Z,99.90
2023-02-12T01:56:24.488Z,99.90
2023-02-12T01:58:55.704Z,99.90
2023-02-12T02:01:28.482Z,99.90
2023-02-12T02:04:00.825Z,99.90
2023-02-12T02:06:33.368Z,99.90
2023-02-12T02:09:03.819Z,99.90
2023-02-12T02:11:51.198Z,99.90
2023-02-12T02:14:34.795Z,99.90
2023-02-12T02:17:36.249Z,99.90
2023-02-12T02:20:43.498Z,99.90
2023-02-12T02:23:35.850Z,99.90
2023-02-12T02:26:23.804Z,99.90
2023-02-12T02:29:14.843Z,99.90
2023-02-12T02:31:47.644Z,99.90
2023-02-12T02:34:23.916Z,99.90
2023-02-12T02:37:01.281Z,99.90
2023-02-12T02:39:39.790Z,99.90
2023-02-12T02:42:14.466Z,99.90
2023-02-12T02:44:52.091Z,99.90
2023-02-12T02:47:25.033Z,99.90
2023-02-12T02:49:57.396Z,99.90
2023-02-12T02:52:31.807Z,99.90
2023-02-12T02:55:05.222Z,99.90
2023-02-12T02:57:39.130Z,99.90
2023-02-12T03:00:14.454Z,99.90
2023-02-12T03:02:49.119Z,99.90
2023-02-12T03:05:21.211Z,99.90
2023-02-12T03:07:54.102Z,99.90
2023-02-12T03:10:28.939Z,99.90
2023-02-12T03:13:01.917Z,99.90
2023-02-12T03:15:35.045Z,99.90
2023-02-12T03:18:11.583Z,99.90
2023-02-12T03:20:45.370Z,99.90
2023-02-12T03:23:18.220Z,99.90
2023-02-12T03:25:54.410Z,99.90
2023-02-12T03:28:26.789Z,99.90
2023-02-12T03:31:00.921Z,99.90
2023-02-12T03:33:37.020Z,99.90
2023-02-12T03:36:17.890Z,99.90
2023-02-12T03:38:50.489Z,99.90
2023-02-12T03:41:26.393Z,99.90
2023-02-12T03:43:58.500Z,99.90
2023-02-12T03:46:31.305Z,99.90
2023-02-12T03:49:07.615Z,99.90
2023-02-12T03:51:37.962Z,99.90
2023-02-12T03:54:07.720Z,99.90
2023-02-12T03:56:41.784Z,99.90
2023-02-12T03:59:10.267Z,99.90
2023-02-12T04:01:38.751Z,99.90
2023-02-12T04:04:10.014Z,99.90
2023-02-12T04:06:38.441Z,99.90
2023-02-12T04:09:09.239Z,99.90
2023-02-12T04:11:48.574Z,99.90
2023-02-12T04:14:25.860Z,99.90
2023-02-12T04:17:04.350Z,99.90
2023-02-12T04:19:41.668Z,99.90
2023-02-12T04:22:24.673Z,99.90
2023-02-12T04:25:05.713Z,99.90
2023-02-12T04:27:42.254Z,99.90
2023-02-12T04:30:16.236Z,99.90
2023-02-12T04:32:51.386Z,99.90
2023-02-12T04:35:26.133Z,99.90
2023-02-12T04:38:00.715Z,99.90
2023-02-12T04:40:29.568Z,99.90
2023-02-12T04:42:59.990Z,99.90
2023-02-12T04:45:30.187Z,99.90
2023-02-12T04:47:58.706Z,99.90
2023-02-12T04:50:29.437Z,99.90
2023-02-12T04:52:57.602Z,99.90
2023-02-12T04:55:25.837Z,99.90
2023-02-12T04:57:53.983Z,99.90
2023-02-12T05:00:22.613Z,99.90
2023-02-12T05:02:50.858Z,99.90
2023-02-12T05:05:19.211Z,99.90
2023-02-12T05:07:48.774Z,99.90
2023-02-12T05:10:17.295Z,99.90
2023-02-12T05:12:45.762Z,99.90
2023-02-12T05:15:14.078Z,99.90
2023-02-12T05:17:42.245Z,99.90
2023-02-12T05:20:14.395Z,99.90
2023-02-12T05:22:42.751Z,99.90
2023-02-12T05:25:12.282Z,99.90
2023-02-12T05:27:40.452Z,99.90
2023-02-12T05:30:11.914Z,99.90
2023-02-12T05:32:40.086Z,99.90
2023-02-12T05:35:11.313Z,99.90
2023-02-12T05:37:39.554Z,99.90
2023-02-12T05:40:09.155Z,99.90
2023-02-12T05:42:39.318Z,99.90
2023-02-12T05:45:08.481Z,99.90
2023-02-12T05:47:36.690Z,99.90
2023-02-12T05:50:04.978Z,99.90
2023-02-12T05:52:36.224Z,99.90
2023-02-12T05:55:04.509Z,99.90
2023-02-12T05:57:32.692Z,99.90
2023-02-12T06:00:02.478Z,99.90
2023-02-12T06:02:40.450Z,99.90
2023-02-12T06:05:09.331Z,99.90
2023-02-12T06:07:37.452Z,99.90
2023-02-12T06:10:06.265Z,99.90
2023-02-12T06:12:34.517Z,99.90
2023-02-12T06:15:04.171Z,99.90
2023-02-12T06:17:32.433Z,99.90
2023-02-12T06:20:02.836Z,99.90
2023-02-12T06:22:30.998Z,99.90
2023-02-12T06:24:59.225Z,99.90
2023-02-12T06:27:27.460Z,99.90
2023-02-12T06:29:55.598Z,99.90
2023-02-12T06:32:25.614Z,99.90
2023-02-12T06:34:53.793Z,99.90
2023-02-12T06:37:22.027Z,99.90
2023-02-12T06:39:50.245Z,99.90
2023-02-12T06:42:18.437Z,99.90
2023-02-12T06:44:47.706Z,99.90
2023-02-12T06:47:15.875Z,99.90
2023-02-12T06:49:45.540Z,99.90
2023-02-12T06:52:14.168Z,99.90
2023-02-12T06:54:42.450Z,99.90
2023-02-12T06:57:11.033Z,99.90
2023-02-12T06:59:39.214Z,99.90
2023-02-12T07:02:07.779Z,99.90
2023-02-12T07:04:35.974Z,99.90
2023-02-12T07:07:07.942Z,99.90
2023-02-12T07:09:36.106Z,99.90
2023-02-12T07:12:04.471Z,99.90
2023-02-12T07:14:35.755Z,99.90
2023-02-12T07:17:05.536Z,99.90
2023-02-12T07:19:33.819Z,99.90
2023-02-12T07:22:01.940Z,99.90
2023-02-12T07:24:31.787Z,99.90
2023-02-12T07:27:00.004Z,99.90
2023-02-12T07:29:31.147Z,99.90
2023-02-12T07:32:02.209Z,99.90
2023-02-12T07:34:30.518Z,99.90
2023-02-12T07:36:58.653Z,99.90
2023-02-12T07:39:26.933Z,99.90
2023-02-12T07:41:57.888Z,99.90
2023-02-12T07:44:26.293Z,99.90
2023-02-12T07:46:54.435Z,99.90
2023-02-12T07:49:23.793Z,99.90
2023-02-12T07:51:52.336Z,99.90
2023-02-12T07:54:22.742Z,99.90
2023-02-12T07:56:53.968Z,99.90
2023-02-12T07:59:25.824Z,99.90
2023-02-12T08:01:54.550Z,99.90
2023-02-12T08:04:25.263Z,99.90
2023-02-12T08:06:56.103Z,99.90
2023-02-12T08:09:25.904Z,99.90
2023-02-12T08:11:54.786Z,99.90
2023-02-12T08:14:23.479Z,99.90
2023-02-12T08:16:53.503Z,99.90
2023-02-12T08:19:26.341Z,99.90
2023-02-12T08:21:56.380Z,99.90
2023-02-12T08:24:24.809Z,99.90
2023-02-12T08:26:53.500Z,99.90
2023-02-12T08:29:24.214Z,99.90
2023-02-12T08:32:00.021Z,99.90
2023-02-12T08:34:32.169Z,99.90
2023-02-12T08:37:00.758Z,99.90
2023-02-12T08:39:30.429Z,99.90
2023-02-12T08:42:01.716Z,99.90
2023-02-12T08:44:30.828Z,99.90
2023-02-12T08:47:03.446Z,99.90
2023-02-12T08:49:31.941Z,99.90
2023-02-12T08:52:01.850Z,99.90
2023-02-12T08:54:32.758Z,99.90
2023-02-12T08:57:02.700Z,99.90
2023-02-12T08:59:31.248Z,99.40
2023-02-12T09:02:00.538Z,95.70
2023-02-12T09:04:30.319Z,92.20
2023-02-12T09:07:00.952Z,86.40
2023-02-12T09:09:29.259Z,81.10
2023-02-12T09:11:59.699Z,76.10
2023-02-12T09:14:27.871Z,73.00
2023-02-12T09:16:57.366Z,67.80
2023-02-12T09:19:26.258Z,66.70
2023-02-12T09:21:57.238Z,64.10
2023-02-12T09:24:27.549Z,62.60
2023-02-12T09:26:55.983Z,60.50
2023-02-12T09:29:24.202Z,58.20
2023-02-12T09:31:52.514Z,56.90
2023-02-12T09:34:20.897Z,55.40
2023-02-12T09:36:49.055Z,55.20
2023-02-12T09:39:18.636Z,53.70
2023-02-12T09:42:31.578Z,55.00
2023-02-12T09:45:08.321Z,54.80
2023-02-12T09:47:43.411Z,54.10
2023-02-12T09:50:36.348Z,53.60
2023-02-12T09:53:05.414Z,52.80
2023-02-12T09:55:36.731Z,51.70
2023-02-12T09:58:12.268Z,52.00
2023-02-12T10:00:40.571Z,52.30
2023-02-12T10:03:14.934Z,51.60
2023-02-12T10:05:48.889Z,51.70
2023-02-12T10:08:30.622Z,50.80
2023-02-12T10:11:11.760Z,50.70
2023-02-12T10:13:49.365Z,50.50
2023-02-12T10:16:41.593Z,50.70
2023-02-12T10:19:28.586Z,50.70
2023-02-12T10:22:06.125Z,49.80
2023-02-12T10:24:47.273Z,49.30
2023-02-12T10:27:27.049Z,49.00
2023-02-12T10:29:59.183Z,50.00
2023-02-12T10:32:32.020Z,50.30
2023-02-12T10:35:03.389Z,50.50
2023-02-12T10:37:39.775Z,50.60
2023-02-12T10:40:19.044Z,50.60
2023-02-12T10:42:50.925Z,50.90
2023-02-12T10:45:20.978Z,51.40
2023-02-12T10:47:54.720Z,51.90
2023-02-12T10:50:30.207Z,54.00
2023-02-12T10:53:03.572Z,52.60
2023-02-12T10:55:34.076Z,52.80
2023-02-12T10:58:06.010Z,53.70
2023-02-12T11:00:36.212Z,53.30
2023-02-12T11:03:07.736Z,53.70
2023-02-12T11:05:38.207Z,53.90
2023-02-12T11:08:07.097Z,54.40
2023-02-12T11:10:39.578Z,54.20
2023-02-12T11:13:25.875Z,53.90
2023-02-12T11:15:54.752Z,55.50
2023-02-12T11:18:26.431Z,56.50
2023-02-12T11:20:57.646Z,57.70
2023-02-12T11:23:28.190Z,59.60
2023-02-12T11:25:59.549Z,62.10
2023-02-12T11:28:29.917Z,63.50
2023-02-12T11:31:00.503Z,64.20
2023-02-12T11:33:34.728Z,66.40
2023-02-12T11:36:07.525Z,68.00
2023-02-12T11:38:40.102Z,69.70
2023-02-12T11:41:20.323Z,70.60
2023-02-12T11:43:51.984Z,71.80
2023-02-12T11:46:23.358Z,72.90
2023-02-12T11:48:53.629Z,73.90
2023-02-12T11:51:29.304Z,75.10
2023-02-12T11:54:00.494Z,76.30
2023-02-12T11:56:42.590Z,77.40
2023-02-12T11:59:30.708Z,78.40
2023-02-12T12:02:04.989Z,79.40
2023-02-12T12:04:35.793Z,79.70
2023-02-12T12:07:11.289Z,80.50
2023-02-12T12:09:45.662Z,81.10
2023-02-12T12:12:22.612Z,82.50
2023-02-12T12:15:16.378Z,82.30
2023-02-12T12:18:05.721Z,82.90
2023-02-12T12:20:38.103Z,83.00
2023-02-12T12:23:12.639Z,83.70
2023-02-12T12:25:47.151Z,84.60
2023-02-12T12:28:30.039Z,85.40
2023-02-12T12:31:11.681Z,86.00
2023-02-12T12:33:43.729Z,86.10
2023-02-12T12:36:51.919Z,85.70
2023-02-12T12:39:29.378Z,86.00
2023-02-12T12:42:28.453Z,86.30
2023-02-12T12:45:18.062Z,86.60
2023-02-12T12:48:01.676Z,87.00
2023-02-12T12:50:44.353Z,87.70
2023-02-12T12:53:26.839Z,88.60
2023-02-12T12:56:10.026Z,89.40
2023-02-12T12:58:51.610Z,90.00
2023-02-12T13:01:55.176Z,90.10
2023-02-12T13:04:47.085Z,90.20
2023-02-12T13:07:27.521Z,90.50
2023-02-12T13:10:18.142Z,90.80
2023-02-12T13:13:15.211Z,90.80
2023-02-12T13:15:48.728Z,90.90
2023-02-12T13:18:24.864Z,90.70
2023-02-12T13:21:03.909Z,90.70
2023-02-12T13:23:40.010Z,90.90
2023-02-12T13:26:15.421Z,91.10
2023-02-12T13:28:50.413Z,91.40
2023-02-12T13:31:34.113Z,91.70
2023-02-12T13:34:05.611Z,91.80
2023-02-12T13:36:38.236Z,91.80
2023-02-12T13:39:16.340Z,91.90
2023-02-12T13:41:49.526Z,92.10
2023-02-12T13:44:26.442Z,92.30
2023-02-12T13:47:03.685Z,92.50
2023-02-12T13:49:42.517Z,92.50
2023-02-12T13:52:18.388Z,92.70
2023-02-12T13:54:55.846Z,93.00
2023-02-12T13:57:24.134Z,93.40
2023-02-12T13:59:54.832Z,93.60
2023-02-12T14:02:53.409Z,94.10
2023-02-12T14:05:32.721Z,94.70
2023-02-12T14:08:05.987Z,95.20
2023-02-12T14:10:37.510Z,95.70
2023-02-12T14:13:17.337Z,95.90
2023-02-12T14:15:48.503Z,96.40
2023-02-12T14:18:32.852Z,96.70
2023-02-12T14:21:38.054Z,97.00
2023-02-12T14:24:52.012Z,97.50
2023-02-12T14:27:43.113Z,98.10
2023-02-12T14:30:29.570Z,99.00
2023-02-12T14:33:17.796Z,99.60
2023-02-12T14:35:47.086Z,99.90
2023-02-12T14:39:01.391Z,99.90
2023-02-12T14:41:37.701Z,99.90
2023-02-12T14:44:42.645Z,99.90
2023-02-12T14:47:37.211Z,99.90
2023-02-12T14:50:13.964Z,99.90
2023-02-12T14:52:45.041Z,99.90
2023-02-12T14:55:26.444Z,99.90
2023-02-12T14:58:01.112Z,99.90
2023-02-12T15:00:33.952Z,99.90
2023-02-12T15:03:17.182Z,99.90
2023-02-12T15:05:51.058Z,99.90
2023-02-12T15:08:29.149Z,99.90
2023-02-12T15:11:05.386Z,99.90
2023-02-12T15:13:49.244Z,99.90
2023-02-12T15:16:25.266Z,99.90
2023-02-12T15:19:00.669Z,99.90
2023-02-12T15:21:31.645Z,99.90
2023-02-12T15:24:04.210Z,99.90
2023-02-12T15:26:35.362Z,99.90
2023-02-12T15:29:06.470Z,99.90
2023-02-12T15:31:36.165Z,99.90
2023-02-12T15:34:06.445Z,99.90
2023-02-12T15:36:38.100Z,99.90
2023-02-12T15:39:09.718Z,99.90
2023-02-12T15:41:40.374Z,99.90
2023-02-12T15:44:24.759Z,99.90
2023-02-12T15:47:02.715Z,99.90
2023-02-12T15:49:38.235Z,99.90
2023-02-12T15:52:09.745Z,99.90
2023-02-12T15:54:38.764Z,99.90
2023-02-12T15:57:13.177Z,99.90
2023-02-12T15:59:42.468Z,99.90
2023-02-12T16:02:21.025Z,99.90
2023-02-12T16:04:50.759Z,99.90
2023-02-12T16:07:20.479Z,99.90
2023-02-12T16:09:50.345Z,99.90
2023-02-12T16:12:22.581Z,99.90
2023-02-12T16:14:53.374Z,99.90
2023-02-12T16:17:27.356Z,99.90
2023-02-12T16:19:59.329Z,99.90
2023-02-12T16:22:31.859Z,99.90
2023-02-12T16:25:01.167Z,99.90
2023-02-12T16:27:32.430Z,99.90
2023-02-12T16:30:02.949Z,99.90
2023-02-12T16:32:36.405Z,99.90
2023-02-12T16:35:26.698Z,99.90
2023-02-12T16:38:04.009Z,99.90
2023-02-12T16:40:35.240Z,99.90
2023-02-12T16:43:07.917Z,99.90
2023-02-12T16:45:41.590Z,99.90
2023-02-12T16:48:17.225Z,99.90
2023-02-12T16:50:50.541Z,99.90
2023-02-12T16:53:47.055Z,99.90
2023-02-12T16:56:21.128Z,99.90
2023-02-12T16:58:50.867Z,99.90
2023-02-12T17:01:22.938Z,99.90
2023-02-12T17:03:52.174Z,99.90
2023-02-12T17:06:24.456Z,99.90
2023-02-12T17:08:52.737Z,99.90
2023-02-12T17:11:24.158Z,99.90
2023-02-12T17:13:54.430Z,99.90
2023-02-12T17:16:30.715Z,99.90
2023-02-12T17:18:59.897Z,99.90
2023-02-12T17:21:32.458Z,99.90
2023-02-12T17:24:00.739Z,99.90
2023-02-12T17:26:31.989Z,99.90
2023-02-12T17:29:05.397Z,99.90
2023-02-12T17:31:34.315Z,99.90
2023-02-12T17:34:03.387Z,99.90
2023-02-12T17:36:35.780Z,99.90
2023-02-12T17:39:07.654Z,99.90
2023-02-12T17:41:36.298Z,99.90
2023-02-12T17:44:04.789Z,99.90
2023-02-12T17:46:33.111Z,99.90
2023-02-12T17:49:01.372Z,99.90
2023-02-12T17:51:29.582Z,99.90
2023-02-12T17:53:59.104Z,99.90
2023-02-12T17:56:27.283Z,99.90
2023-02-12T17:58:56.599Z,99.90
2023-02-12T18:01:25.277Z,99.90
2023-02-12T18:03:55.787Z,99.90
2023-02-12T18:06:26.976Z,99.90
2023-02-12T18:08:56.536Z,99.90
2023-02-12T18:11:26.116Z,99.90
2023-02-12T18:13:55.730Z,99.90
2023-02-12T18:16:25.700Z,99.90
2023-02-12T18:18:53.924Z,99.90
2023-02-12T18:21:22.422Z,99.90
2023-02-12T18:23:50.830Z,99.90
2023-02-12T18:26:20.066Z,99.90
2023-02-12T18:28:49.793Z,99.90
2023-02-12T18:31:20.166Z,99.90
2023-02-12T18:33:50.795Z,99.90
2023-02-12T18:36:20.905Z,99.90
2023-02-12T18:38:51.414Z,99.90
2023-02-12T18:41:22.100Z,99.90
2023-02-12T18:43:54.841Z,99.90
2023-02-12T18:46:25.412Z,99.90
2023-02-12T18:48:54.259Z,99.90
2023-02-12T18:51:24.267Z,99.90
2023-02-12T18:53:55.868Z,99.90
2023-02-12T18:56:24.524Z,99.90
2023-02-12T18:58:57.722Z,99.90
2023-02-12T19:01:26.634Z,99.90
2023-02-12T19:03:56.856Z,99.90
2023-02-12T19:06:25.338Z,99.90
2023-02-12T19:08:56.153Z,99.90
2023-02-12T19:11:24.732Z,99.90
2023-02-12T19:13:53.403Z,99.90
2023-02-12T19:16:24.974Z,99.90
2023-02-12T19:18:54.778Z,99.90
2023-02-12T19:21:26.204Z,99.90
2023-02-12T19:23:54.961Z,99.90
2023-02-12T19:26:27.971Z,99.90
2023-02-12T19:28:56.673Z,99.90
2023-02-12T19:31:28.758Z,99.90
2023-02-12T19:33:58.912Z,99.90
2023-02-12T19:36:29.117Z,99.90
2023-02-12T19:38:57.435Z,99.90
2023-02-12T19:41:27.909Z,99.90
2023-02-12T19:43:58.274Z,99.90
2023-02-12T19:46:29.781Z,99.90
2023-02-12T19:48:59.994Z,99.90
2023-02-12T19:51:29.993Z,99.90
2023-02-12T19:54:02.014Z,99.90
2023-02-12T19:56:30.309Z,99.90
2023-02-12T19:58:59.104Z,99.90
2023-02-12T20:01:29.176Z,99.90
2023-02-12T20:03:58.374Z,99.90
2023-02-12T20:06:29.157Z,99.90
2023-02-12T20:08:57.696Z,99.90
2023-02-12T20:11:28.837Z,99.90
2023-02-12T20:13:59.402Z,99.90
2023-02-12T20:16:37.859Z,99.90
2023-02-12T20:19:09.080Z,99.90
2023-02-12T20:21:37.407Z,99.90
2023-02-12T20:24:06.393Z,99.90
2023-02-12T20:26:37.992Z,99.90
2023-02-12T20:29:06.309Z,99.90
2023-02-12T20:31:37.988Z,99.90
2023-02-12T20:34:08.234Z,99.90
2023-02-12T20:36:38.459Z,99.90
2023-02-12T20:39:08.552Z,99.90
2023-02-12T20:41:37.651Z,99.90
2023-02-12T20:44:07.326Z,99.90
2023-02-12T20:46:39.323Z,99.90
2023-02-12T20:49:08.120Z,99.90
2023-02-12T20:51:36.688Z,99.90
2023-02-12T20:54:06.981Z,99.90
2023-02-12T20:56:36.750Z,99.90
2023-02-12T20:59:06.440Z,99.90
2023-02-12T21:01:37.618Z,99.90
2023-02-12T21:04:07.954Z,99.90
2023-02-12T21:06:36.471Z,99.90
2023-02-12T21:09:04.781Z,99.90
2023-02-12T21:11:33.054Z,99.90
2023-02-12T21:14:20.800Z,99.90
2023-02-12T21:16:51.142Z,99.90
2023-02-12T21:19:19.476Z,99.90
2023-02-12T21:21:47.949Z,99.90
2023-02-12T21:24:18.509Z,99.90
2023-02-12T21:26:46.722Z,99.90
2023-02-12T21:29:15.326Z,99.90
2023-02-12T21:31:46.405Z,99.90
2023-02-12T21:34:19.001Z,99.90
2023-02-12T21:36:48.787Z,99.90
2023-02-12T21:39:24.542Z,99.90
2023-02-12T21:41:54.224Z,99.90
2023-02-12T21:44:23.986Z,99.90
2023-02-12T21:46:52.378Z,99.90
2023-02-12T21:49:26.626Z,99.90
2023-02-12T21:51:57.271Z,99.90
2023-02-12T21:54:29.017Z,99.90
2023-02-12T21:56:57.890Z,99.90
2023-02-12T21:59:26.894Z,99.90
2023-02-12T22:01:59.221Z,99.90
2023-02-12T22:04:29.261Z,99.90
2023-02-12T22:06:58.123Z,99.90
2023-02-12T22:09:26.352Z,99.90
2023-02-12T22:11:54.781Z,99.90
2023-02-12T22:14:23.653Z,99.90
2023-02-12T22:16:52.149Z,99.90
2023-02-12T22:19:20.418Z,99.90
2023-02-12T22:21:52.464Z,99.90
2023-02-12T22:24:23.218Z,99.90
2023-02-12T22:26:51.399Z,99.90
2023-02-12T22:29:19.848Z,99.90
2023-02-12T22:31:49.064Z,99.90
2023-02-12T22:34:19.760Z,99.90
2023-02-12T22:36:49.528Z,99.90
2023-02-12T22:39:18.792Z,99.90
2023-02-12T22:41:47.036Z,99.90
2023-02-12T22:44:16.698Z,99.90
2023-02-12T22:46:49.854Z,99.90
2023-02-12T22:49:21.019Z,99.90
2023-02-12T22:51:50.715Z,99.90
2023-02-12T22:54:22.067Z,99.90
2023-02-12T22:56:52.018Z,99.90
2023-02-12T22:59:20.240Z,99.90
2023-02-12T23:01:50.683Z,99.90
2023-02-12T23:04:19.976Z,99.90
2023-02-12T23:06:49.898Z,99.90
2023-02-12T23:09:19.817Z,99.90
2023-02-12T23:11:48.161Z,99.90
2023-02-12T23:14:16.495Z,99.90
2023-02-12T23:16:44.779Z,99.90
2023-02-12T23:19:13.249Z,99.90
2023-02-12T23:21:41.634Z,99.90
2023-02-12T23:24:13.940Z,99.90
2023-02-12T23:26:42.172Z,99.90
2023-02-12T23:29:10.673Z,99.90
2023-02-12T23:31:39.195Z,99.90
2023-02-12T23:34:07.509Z,99.90
2023-02-12T23:36:35.694Z,99.90
2023-02-12T23:39:05.838Z,99.90
2023-02-12T23:41:38.034Z,99.90
2023-02-12T23:44:06.772Z,99.90
2023-02-12T23:46:34.939Z,99.90
2023-02-12T23:49:03.178Z,99.90
2023-02-12T23:51:31.628Z,99.90
2023-02-12T23:54:02.812Z,99.90
2023-02-12T23:56:31.043Z,99.90
2023-02-12T23:59:00.566Z,99.90
